»·PEaware :: N967SA KSBA-KBUR

N967SA :: KSBA-KBUR

FLIGHT INFORMATION

Flight Status: Arrived
Operator: Privately registered:
United States
More flights under this callsign
Pilot: Maxine G. (31135)
Aircraft: CESSNA 172 SKYHAWK
(C172)
More flights by this aircraft type
Origin: KSBA Santa Barbara Mun
United States
Destination: KBUR Bob Hope-Burbank
United States
More flights between these airports :: More routes between these airports
Route:
File this flight plan on PilotEdge
Remarks:
Altitude:
(Current/Filed)
5,500ft
Speed:
(Current/Filed)
100kts
Departed: 11-Jan-21 08:30 PM
Arrived: 11-Jan-21 09:09 PM
Distance/Time
Traveled:
75nm/0:38
Distance/Time
To Go:
Arrived

Flight Plot

Page will automatically refresh every two minutes.


Map Options




Map Legend


Flown Route
Filed Route
Departure Airport
Arrival Airport
Navaid (VOR, NDB)
Fix

Horizontal Profiles

Position Reports

Time Latitude Longitude Heading Altitude Ground
Speed
11-Jan-21 20:21 34.432569 -119.835085 71 14ft 0kts
11-Jan-21 20:22 34.432569 -119.835085 71 14ft 0kts
11-Jan-21 20:23 34.432569 -119.835085 71 14ft 0kts
11-Jan-21 20:24 34.432569 -119.835085 71 14ft 0kts
11-Jan-21 20:25 34.432569 -119.835085 71 14ft 0kts
11-Jan-21 20:26 34.432874 -119.834915 268 15ft 9kts
11-Jan-21 20:27 34.430771 -119.839543 250 14ft 0kts
11-Jan-21 20:28 34.430771 -119.839543 250 14ft 0kts
11-Jan-21 20:29 34.425079 -119.838920 174 151ft 74kts
11-Jan-21 20:30 34.401671 -119.832438 175 1049ft 88kts
11-Jan-21 20:31 34.372679 -119.827556 171 1241ft 120kts
11-Jan-21 20:32 34.361836 -119.798734 94 2108ft 99kts
11-Jan-21 20:33 34.358584 -119.765670 94 3007ft 99kts
11-Jan-21 20:34 34.355126 -119.732991 94 3906ft 96kts
11-Jan-21 20:35 34.351661 -119.700415 93 4730ft 99kts
11-Jan-21 20:36 34.348124 -119.667401 93 5532ft 98kts
11-Jan-21 20:37 34.343733 -119.626655 94 5512ft 129kts
11-Jan-21 20:38 34.339025 -119.583322 94 5509ft 130kts
11-Jan-21 20:39 34.334312 -119.539662 94 5508ft 131kts
11-Jan-21 20:40 34.329571 -119.495878 94 5506ft 131kts
11-Jan-21 20:41 34.324796 -119.451932 95 5504ft 132kts
11-Jan-21 20:42 34.319962 -119.407602 95 5484ft 133kts
11-Jan-21 20:43 34.315097 -119.363123 95 5482ft 133kts
11-Jan-21 20:44 34.310212 -119.318638 96 5478ft 133kts
11-Jan-21 20:45 34.305288 -119.273944 96 5477ft 133kts
11-Jan-21 20:46 34.300386 -119.229451 95 5477ft 133kts
11-Jan-21 20:47 34.295492 -119.185165 95 5477ft 132kts
11-Jan-21 20:48 34.290578 -119.141004 95 5477ft 131kts
11-Jan-21 20:49 34.285697 -119.097302 95 5477ft 130kts
11-Jan-21 20:50 34.280811 -119.053696 95 5477ft 129kts
11-Jan-21 20:51 34.275950 -119.010443 94 5477ft 129kts
11-Jan-21 20:52 34.271088 -118.967358 94 5478ft 128kts
11-Jan-21 20:53 34.266175 -118.924201 94 5478ft 128kts
11-Jan-21 20:54 34.261281 -118.881096 93 5477ft 127kts
11-Jan-21 20:55 34.256259 -118.836982 93 5478ft 127kts
11-Jan-21 20:56 34.251333 -118.793864 93 5478ft 126kts
11-Jan-21 20:57 34.246196 -118.749030 92 5475ft 126kts
11-Jan-21 20:58 34.241244 -118.705966 92 5471ft 126kts
11-Jan-21 20:59 34.236353 -118.663524 92 5376ft 130kts
11-Jan-21 21:00 34.231048 -118.618545 92 4863ft 126kts
11-Jan-21 21:01 34.221345 -118.578955 107 4596ft 118kts
11-Jan-21 21:02 34.206736 -118.543397 110 4346ft 115kts
11-Jan-21 21:03 34.196775 -118.505984 89 3792ft 108kts
11-Jan-21 21:04 34.196655 -118.470139 80 3157ft 102kts
11-Jan-21 21:05 34.197692 -118.433216 85 2053ft 109kts
11-Jan-21 21:06 34.198081 -118.400381 85 1375ft 81kts
11-Jan-21 21:07 34.198033 -118.378042 86 948ft 60kts
11-Jan-21 21:08 34.197796 -118.361203 90 722ft 23kts
11-Jan-21 21:09 34.196853 -118.361020 272 721ft 13kts
11-Jan-21 21:10 34.195675 -118.362566 171 721ft 0kts

Navigation Log

Ident Type
Flight plan parsing failed, navigation log unavailable